sensor_id;sensor_type;location;lat;lon;timestamp;temperature;humidity
47368;DHT22;34646;47.964;7.982;2023-04-16T00:56:03;16.70;81.60
47368;DHT22;34646;47.964;7.982;2023-04-16T04:21:08;16.00;82.00
47368;DHT22;34646;47.964;7.982;2023-04-16T07:15:53;16.20;89.80
47368;DHT22;34646;47.964;7.982;2023-04-16T07:21:54;16.30;89.70
47368;DHT22;34646;47.964;7.982;2023-04-16T07:27:55;16.80;90.00
47368;DHT22;34646;47.964;7.982;2023-04-16T07:33:56;16.60;89.80
47368;DHT22;34646;47.964;7.982;2023-04-16T08:16:05;16.50;90.00
47368;DHT22;34646;47.964;7.982;2023-04-16T08:34:09;16.20;79.90
47368;DHT22;34646;47.964;7.982;2023-04-16T08:40:11;16.70;90.40
47368;DHT22;34646;47.964;7.982;2023-04-16T08:46:12;16.60;80.70
47368;DHT22;34646;47.964;7.982;2023-04-16T08:52:17;16.30;81.10
47368;DHT22;34646;47.964;7.982;2023-04-16T08:58:21;16.60;81.20
47368;DHT22;34646;47.964;7.982;2023-04-16T09:04:24;16.30;81.20
47368;DHT22;34646;47.964;7.982;2023-04-16T09:16:27;16.40;90.00
47368;DHT22;34646;47.964;7.982;2023-04-16T09:28:45;16.20;89.90
47368;DHT22;34646;47.964;7.982;2023-04-16T09:34:57;16.40;90.00
47368;DHT22;34646;47.964;7.982;2023-04-16T09:41:07;16.50;90.00
47368;DHT22;34646;47.964;7.982;2023-04-16T09:47:08;16.60;90.00
47368;DHT22;34646;47.964;7.982;2023-04-16T09:53:09;16.40;89.90
47368;DHT22;34646;47.964;7.982;2023-04-16T09:59:20;16.70;90.00
47368;DHT22;34646;47.964;7.982;2023-04-16T10:05:20;16.00;89.70
47368;DHT22;34646;47.964;7.982;2023-04-16T10:11:22;16.00;89.80
47368;DHT22;34646;47.964;7.982;2023-04-16T10:17:23;16.30;90.00
47368;DHT22;34646;47.964;7.982;2023-04-16T10:23:24;16.40;90.00
47368;DHT22;34646;47.964;7.982;2023-04-16T10:29:26;16.20;90.00
47368;DHT22;34646;47.964;7.982;2023-04-16T10:35:29;16.00;89.90
47368;DHT22;34646;47.964;7.982;2023-04-16T10:41:31;16.30;90.00
47368;DHT22;34646;47.964;7.982;2023-04-16T10:47:38;16.20;90.00
47368;DHT22;34646;47.964;7.982;2023-04-16T10:53:39;16.10;90.00
47368;DHT22;34646;47.964;7.982;2023-04-16T10:59:42;16.20;90.00
47368;DHT22;34646;47.964;7.982;2023-04-16T11:05:46;16.10;90.00
47368;DHT22;34646;47.964;7.982;2023-04-16T11:11:46;15.90;90.00
47368;DHT22;34646;47.964;7.982;2023-04-16T11:17:51;15.60;89.90
47368;DHT22;34646;47.964;7.982;2023-04-16T11:23:52;16.00;90.00
47368;DHT22;34646;47.964;7.982;2023-04-16T11:30:05;16.10;89.80
47368;DHT22;34646;47.964;7.982;2023-04-16T11:36:08;16.70;89.80
47368;DHT22;34646;47.964;7.982;2023-04-16T11:42:09;16.60;89.60
47368;DHT22;34646;47.964;7.982;2023-04-16T11:48:10;16.60;89.50
47368;DHT22;34646;47.964;7.982;2023-04-16T11:54:22;16.60;89.30
47368;DHT22;34646;47.964;7.982;2023-04-16T12:00:22;16.80;89.30
47368;DHT22;34646;47.964;7.982;2023-04-16T12:06:23;17.00;89.50
47368;DHT22;34646;47.964;7.982;2023-04-16T12:12:28;16.90;89.50
47368;DHT22;34646;47.964;7.982;2023-04-16T12:18:30;17.00;89.60
47368;DHT22;34646;47.964;7.982;2023-04-16T12:24:31;16.60;89.40
47368;DHT22;34646;47.964;7.982;2023-04-16T12:30:31;17.00;89.50
47368;DHT22;34646;47.964;7.982;2023-04-16T12:36:32;17.10;89.40
47368;DHT22;34646;47.964;7.982;2023-04-16T12:42:33;17.10;89.50
47368;DHT22;34646;47.964;7.982;2023-04-16T12:48:36;17.40;89.40
47368;DHT22;34646;47.964;7.982;2023-04-16T13:00:38;16.50;90.00
47368;DHT22;34646;47.964;7.982;2023-04-16T13:06:39;16.70;88.70
47368;DHT22;34646;47.964;7.982;2023-04-16T13:12:40;17.00;88.60
47368;DHT22;34646;47.964;7.982;2023-04-16T13:24:42;17.10;89.10
47368;DHT22;34646;47.964;7.982;2023-04-16T13:30:42;17.20;89.20
47368;DHT22;34646;47.964;7.982;2023-04-16T13:36:43;17.30;89.10
47368;DHT22;34646;47.964;7.982;2023-04-16T13:42:44;17.20;89.10
47368;DHT22;34646;47.964;7.982;2023-04-16T13:48:44;17.70;89.50
47368;DHT22;34646;47.964;7.982;2023-04-16T13:54:46;17.80;89.60
47368;DHT22;34646;47.964;7.982;2023-04-16T14:00:53;17.10;89.60
47368;DHT22;34646;47.964;7.982;2023-04-16T14:06:53;17.10;89.60
47368;DHT22;34646;47.964;7.982;2023-04-16T14:12:54;17.00;89.70
47368;DHT22;34646;47.964;7.982;2023-04-16T14:18:56;17.40;90.10
47368;DHT22;34646;47.964;7.982;2023-04-16T14:30:58;17.40;90.20
47368;DHT22;34646;47.964;7.982;2023-04-16T14:36:58;17.50;90.30
47368;DHT22;34646;47.964;7.982;2023-04-16T14:42:59;17.70;90.40
47368;DHT22;34646;47.964;7.982;2023-04-16T14:49:00;17.50;90.50
47368;DHT22;34646;47.964;7.982;2023-04-16T14:55:00;17.50;90.60
47368;DHT22;34646;47.964;7.982;2023-04-16T15:01:01;17.50;83.50
47368;DHT22;34646;47.964;7.982;2023-04-16T15:07:02;17.20;90.80
47368;DHT22;34646;47.964;7.982;2023-04-16T15:13:03;17.40;90.90
47368;DHT22;34646;47.964;7.982;2023-04-16T15:19:05;17.50;90.90
47368;DHT22;34646;47.964;7.982;2023-04-16T15:25:05;17.50;91.00
47368;DHT22;34646;47.964;7.982;2023-04-16T15:31:06;17.50;90.90
47368;DHT22;34646;47.964;7.982;2023-04-16T15:37:07;16.90;90.80
47368;DHT22;34646;47.964;7.982;2023-04-16T15:49:10;17.00;90.90
47368;DHT22;34646;47.964;7.982;2023-04-16T16:01:12;17.40;86.90
47368;DHT22;34646;47.964;7.982;2023-04-16T16:07:13;17.30;90.80
47368;DHT22;34646;47.964;7.982;2023-04-16T16:25:19;17.10;90.70
47368;DHT22;34646;47.964;7.982;2023-04-16T16:31:19;17.30;90.80
47368;DHT22;34646;47.964;7.982;2023-04-16T16:37:20;17.30;90.80
47368;DHT22;34646;47.964;7.982;2023-04-16T16:49:22;17.10;90.70
47368;DHT22;34646;47.964;7.982;2023-04-16T16:55:23;17.50;90.80
47368;DHT22;34646;47.964;7.982;2023-04-16T17:01:24;17.00;90.70
47368;DHT22;34646;47.964;7.982;2023-04-16T17:07:25;17.30;84.10
47368;DHT22;34646;47.964;7.982;2023-04-16T17:13:26;17.20;90.30
47368;DHT22;34646;47.964;7.982;2023-04-16T17:19:27;16.90;90.60
47368;DHT22;34646;47.964;7.982;2023-04-16T17:31:29;17.10;90.50
47368;DHT22;34646;47.964;7.982;2023-04-16T17:37:30;17.70;90.40
47368;DHT22;34646;47.964;7.982;2023-04-16T17:43:31;17.20;90.40
47368;DHT22;34646;47.964;7.982;2023-04-16T17:55:33;17.50;90.30
47368;DHT22;34646;47.964;7.982;2023-04-16T18:01:33;17.50;90.30
47368;DHT22;34646;47.964;7.982;2023-04-16T18:07:34;17.30;90.20
47368;DHT22;34646;47.964;7.982;2023-04-16T18:13:35;17.30;90.30
47368;DHT22;34646;47.964;7.982;2023-04-16T18:25:38;17.40;90.40
47368;DHT22;34646;47.964;7.982;2023-04-16T18:31:39;17.20;90.50
47368;DHT22;34646;47.964;7.982;2023-04-16T18:37:40;17.60;90.70
47368;DHT22;34646;47.964;7.982;2023-04-16T18:43:41;17.20;90.70
47368;DHT22;34646;47.964;7.982;2023-04-16T18:49:41;17.40;86.60
47368;DHT22;34646;47.964;7.982;2023-04-16T18:55:42;17.70;90.80
47368;DHT22;34646;47.964;7.982;2023-04-16T19:01:42;17.20;90.80
47368;DHT22;34646;47.964;7.982;2023-04-16T19:07:43;17.20;90.90
47368;DHT22;34646;47.964;7.982;2023-04-16T19:13:44;17.40;91.10
47368;DHT22;34646;47.964;7.982;2023-04-16T19:19:44;17.40;91.10
47368;DHT22;34646;47.964;7.982;2023-04-16T19:25:47;17.60;91.10
47368;DHT22;34646;47.964;7.982;2023-04-16T19:31:48;17.40;91.10
47368;DHT22;34646;47.964;7.982;2023-04-16T19:37:48;17.70;91.20
47368;DHT22;34646;47.964;7.982;2023-04-16T19:43:49;17.60;91.20
47368;DHT22;34646;47.964;7.982;2023-04-16T19:49:50;17.50;91.30
47368;DHT22;34646;47.964;7.982;2023-04-16T19:55:51;17.50;91.30
47368;DHT22;34646;47.964;7.982;2023-04-16T20:01:51;17.30;91.20
47368;DHT22;34646;47.964;7.982;2023-04-16T20:07:52;17.10;91.20
47368;DHT22;34646;47.964;7.982;2023-04-16T20:13:53;17.50;91.30
47368;DHT22;34646;47.964;7.982;2023-04-16T20:19:54;17.20;91.20
47368;DHT22;34646;47.964;7.982;2023-04-16T20:26:00;17.60;91.30
47368;DHT22;34646;47.964;7.982;2023-04-16T20:38:02;17.30;91.00
47368;DHT22;34646;47.964;7.982;2023-04-16T20:44:03;17.30;90.90
47368;DHT22;34646;47.964;7.982;2023-04-16T20:50:05;17.10;90.80
47368;DHT22;34646;47.964;7.982;2023-04-16T21:02:08;17.50;90.90
47368;DHT22;34646;47.964;7.982;2023-04-16T21:08:09;17.20;90.80
47368;DHT22;34646;47.964;7.982;2023-04-16T21:14:10;17.20;90.80
47368;DHT22;34646;47.964;7.982;2023-04-16T21:20:11;17.40;90.90
47368;DHT22;34646;47.964;7.982;2023-04-16T21:26:12;17.10;90.70
47368;DHT22;34646;47.964;7.982;2023-04-16T21:32:13;17.40;90.80
47368;DHT22;34646;47.964;7.982;2023-04-16T21:38:14;17.20;90.80
47368;DHT22;34646;47.964;7.982;2023-04-16T21:44:14;17.30;90.80
47368;DHT22;34646;47.964;7.982;2023-04-16T21:50:15;17.30;90.80
47368;DHT22;34646;47.964;7.982;2023-04-16T21:56:16;17.20;90.70
47368;DHT22;34646;47.964;7.982;2023-04-16T22:02:16;17.10;90.70
47368;DHT22;34646;47.964;7.982;2023-04-16T22:08:17;16.90;90.60
47368;DHT22;34646;47.964;7.982;2023-04-16T22:14:20;17.30;90.20
47368;DHT22;34646;47.964;7.982;2023-04-16T22:20:21;17.30;90.70
47368;DHT22;34646;47.964;7.982;2023-04-16T22:26:22;17.00;90.60
47368;DHT22;34646;47.964;7.982;2023-04-16T22:32:23;17.20;90.70
47368;DHT22;34646;47.964;7.982;2023-04-16T22:38:23;16.80;90.60
47368;DHT22;34646;47.964;7.982;2023-04-16T22:44:24;17.10;90.70
47368;DHT22;34646;47.964;7.982;2023-04-16T22:50:25;17.30;90.70
47368;DHT22;34646;47.964;7.982;2023-04-16T22:56:26;17.00;90.60
47368;DHT22;34646;47.964;7.982;2023-04-16T23:02:28;16.80;83.50
47368;DHT22;34646;47.964;7.982;2023-04-16T23:08:28;17.00;90.60
47368;DHT22;34646;47.964;7.982;2023-04-16T23:14:29;17.00;90.60
47368;DHT22;34646;47.964;7.982;2023-04-16T23:20:30;16.90;90.60
47368;DHT22;34646;47.964;7.982;2023-04-16T23:26:31;16.80;90.50
47368;DHT22;34646;47.964;7.982;2023-04-16T23:32:32;17.00;90.60
47368;DHT22;34646;47.964;7.982;2023-04-16T23:38:36;17.20;90.60
47368;DHT22;34646;47.964;7.982;2023-04-16T23:44:36;17.00;90.60
47368;DHT22;34646;47.964;7.982;2023-04-16T23:50:37;17.20;90.60
47368;DHT22;34646;47.964;7.982;2023-04-16T23:56:37;16.80;90.50
